createdAt,value
2023-02-17T00:02:19.609Z,29.70
2023-02-17T00:05:13.874Z,29.80
2023-02-17T00:08:08.068Z,29.80
2023-02-17T00:11:03.180Z,29.80
2023-02-17T00:13:57.709Z,29.90
2023-02-17T00:16:52.036Z,29.90
2023-02-17T00:19:46.970Z,29.90
2023-02-17T00:22:41.175Z,30.00
2023-02-17T00:25:35.628Z,30.00
2023-02-17T00:28:29.830Z,30.00
2023-02-17T00:31:25.651Z,30.00
2023-02-17T00:34:20.278Z,30.00
2023-02-17T00:37:14.637Z,30.10
2023-02-17T00:40:09.520Z,30.10
2023-02-17T00:43:03.780Z,30.00
2023-02-17T00:45:58.187Z,29.90
2023-02-17T00:48:53.464Z,29.90
2023-02-17T00:51:48.814Z,30.00
2023-02-17T00:54:43.484Z,30.10
2023-02-17T00:57:37.748Z,30.20
2023-02-17T01:00:32.154Z,30.10
2023-02-17T01:03:27.131Z,30.10
2023-02-17T01:06:29.495Z,30.20
2023-02-17T01:09:23.720Z,30.20
2023-02-17T01:12:18.048Z,30.30
2023-02-17T01:15:12.575Z,30.40
2023-02-17T01:18:07.084Z,30.10
2023-02-17T01:21:01.395Z,30.10
2023-02-17T01:23:57.815Z,30.10
2023-02-17T01:26:52.155Z,30.10
2023-02-17T01:29:47.404Z,30.10
2023-02-17T01:32:41.682Z,30.00
2023-02-17T01:35:36.563Z,29.90
2023-02-17T01:38:30.927Z,29.90
2023-02-17T01:41:30.651Z,30.00
2023-02-17T01:44:27.203Z,30.10
2023-02-17T01:47:21.463Z,29.90
2023-02-17T01:50:16.362Z,29.90
2023-02-17T01:53:12.639Z,30.00
2023-02-17T01:56:08.098Z,30.10
2023-02-17T01:59:09.952Z,30.20
2023-02-17T02:02:07.038Z,30.20
2023-02-17T02:05:02.026Z,30.20
2023-02-17T02:07:56.781Z,30.10
2023-02-17T02:10:51.107Z,30.20
2023-02-17T02:13:46.726Z,30.20
2023-02-17T02:17:29.208Z,30.30
2023-02-17T02:20:54.309Z,30.10
2023-02-17T02:24:10.088Z,29.80
2023-02-17T02:27:23.181Z,29.80
2023-02-17T02:30:45.339Z,29.80
2023-02-17T02:33:39.535Z,29.90
2023-02-17T02:37:02.081Z,30.00
2023-02-17T02:39:58.793Z,30.10
2023-02-17T02:42:53.476Z,30.30
2023-02-17T02:45:47.955Z,30.30
2023-02-17T02:48:43.104Z,30.40
2023-02-17T02:52:03.381Z,30.50
2023-02-17T02:55:23.496Z,30.50
2023-02-17T02:58:38.081Z,30.60
2023-02-17T03:01:50.422Z,30.70
2023-02-17T03:05:02.075Z,30.70
2023-02-17T03:08:13.974Z,30.70
2023-02-17T03:11:08.810Z,30.60
2023-02-17T03:14:04.248Z,30.70
2023-02-17T03:16:59.527Z,30.80
2023-02-17T03:19:54.300Z,30.80
2023-02-17T03:22:50.071Z,30.90
2023-02-17T03:25:46.317Z,31.00
2023-02-17T03:28:40.511Z,31.00
2023-02-17T03:31:35.558Z,30.90
2023-02-17T03:34:29.857Z,31.00
2023-02-17T03:37:24.316Z,31.10
2023-02-17T03:40:18.701Z,31.10
2023-02-17T03:43:13.241Z,31.20
2023-02-17T03:46:11.769Z,31.40
2023-02-17T03:49:06.103Z,31.50
2023-02-17T03:52:02.715Z,31.50
2023-02-17T03:54:57.049Z,31.50
2023-02-17T03:57:51.358Z,31.40
2023-02-17T04:00:45.947Z,31.40
2023-02-17T04:03:41.718Z,31.40
2023-02-17T04:06:36.040Z,31.40
2023-02-17T04:09:30.372Z,31.20
2023-02-17T04:12:24.893Z,31.10
2023-02-17T04:15:19.247Z,30.90
2023-02-17T04:18:13.622Z,30.90
2023-02-17T04:21:08.217Z,31.00
2023-02-17T04:24:04.353Z,31.10
2023-02-17T04:26:58.548Z,31.10
2023-02-17T04:29:53.660Z,31.00
2023-02-17T04:32:47.970Z,31.10
2023-02-17T04:35:42.873Z,31.10
2023-02-17T04:38:37.310Z,31.20
2023-02-17T04:41:31.550Z,31.40
2023-02-17T04:44:25.792Z,31.50
2023-02-17T04:47:20.103Z,31.40
2023-02-17T04:50:14.667Z,31.50
2023-02-17T04:53:09.558Z,31.40
2023-02-17T04:56:04.031Z,31.40
2023-02-17T04:58:58.550Z,31.40
2023-02-17T05:01:53.612Z,31.40
2023-02-17T05:04:48.367Z,31.40
2023-02-17T05:07:43.690Z,31.40
2023-02-17T05:10:38.092Z,31.50
2023-02-17T05:13:34.355Z,31.50
2023-02-17T05:16:28.629Z,31.30
2023-02-17T05:19:22.897Z,31.10
2023-02-17T05:22:17.328Z,30.90
2023-02-17T05:25:11.549Z,30.80
2023-02-17T05:28:05.976Z,30.80
2023-02-17T05:31:00.208Z,30.80
2023-02-17T05:33:56.821Z,30.80
2023-02-17T05:36:51.043Z,30.80
2023-02-17T05:39:45.360Z,30.90
2023-02-17T05:42:39.788Z,30.90
2023-02-17T05:45:34.055Z,30.80
2023-02-17T05:48:28.351Z,30.90
2023-02-17T05:51:22.657Z,31.00
2023-02-17T05:54:16.943Z,31.10
2023-02-17T05:57:11.221Z,31.10
2023-02-17T06:00:06.755Z,30.90
2023-02-17T06:03:01.108Z,31.00
2023-02-17T06:05:55.371Z,31.00
2023-02-17T06:08:49.974Z,31.00
2023-02-17T06:11:44.251Z,30.90
2023-02-17T06:14:38.515Z,30.90
2023-02-17T06:17:32.780Z,31.00
2023-02-17T06:20:27.355Z,31.10
2023-02-17T06:23:21.574Z,31.10
2023-02-17T06:26:15.924Z,31.20
2023-02-17T06:29:10.208Z,31.20
2023-02-17T06:32:05.092Z,31.20
2023-02-17T06:34:59.565Z,31.20
2023-02-17T06:37:54.145Z,31.10
2023-02-17T06:40:48.567Z,31.10
2023-02-17T06:43:42.987Z,31.00
2023-02-17T06:46:37.413Z,30.90
2023-02-17T06:49:31.805Z,30.80
2023-02-17T06:52:26.064Z,30.70
2023-02-17T06:55:20.373Z,30.50
2023-02-17T06:58:14.668Z,30.40
2023-02-17T07:01:10.873Z,30.40
2023-02-17T07:04:05.160Z,30.40
2023-02-17T07:06:59.394Z,30.50
2023-02-17T07:09:53.752Z,30.40
2023-02-17T07:12:48.560Z,30.40
2023-02-17T07:15:42.999Z,30.30
2023-02-17T07:18:39.076Z,30.00
2023-02-17T07:21:33.466Z,29.80
2023-02-17T07:24:28.347Z,29.80
2023-02-17T07:27:22.633Z,29.80
2023-02-17T07:30:17.228Z,29.90
2023-02-17T07:33:14.785Z,29.90
2023-02-17T07:36:10.769Z,29.80
2023-02-17T07:39:06.081Z,29.70
2023-02-17T07:42:02.208Z,29.70
2023-02-17T07:44:56.616Z,29.50
2023-02-17T07:47:50.890Z,29.40
2023-02-17T07:50:45.158Z,29.40
2023-02-17T07:53:39.902Z,29.40
2023-02-17T07:56:35.173Z,29.40
2023-02-17T07:59:29.629Z,29.40
2023-02-17T08:02:24.072Z,29.20
2023-02-17T08:05:18.418Z,29.20
2023-02-17T08:08:31.110Z,29.20
2023-02-17T08:11:44.836Z,29.10
2023-02-17T08:14:40.022Z,29.20
2023-02-17T08:17:34.401Z,29.10
2023-02-17T08:20:29.159Z,29.00
2023-02-17T08:23:23.922Z,28.90
2023-02-17T08:26:19.023Z,28.90
2023-02-17T08:29:13.327Z,28.90
2023-02-17T08:32:07.825Z,28.90
2023-02-17T08:35:02.980Z,28.90
2023-02-17T08:37:57.265Z,28.70
2023-02-17T08:40:52.024Z,28.70
2023-02-17T08:43:46.646Z,28.60
2023-02-17T08:46:43.143Z,28.50
2023-02-17T08:49:38.811Z,28.50
2023-02-17T08:52:34.176Z,28.50
2023-02-17T08:55:35.543Z,28.60
2023-02-17T08:58:41.013Z,28.60
2023-02-17T09:01:38.268Z,28.50
2023-02-17T09:04:34.194Z,28.50
2023-02-17T09:07:28.805Z,28.40
2023-02-17T09:10:23.322Z,28.50
2023-02-17T09:13:18.455Z,28.50
2023-02-17T09:16:13.148Z,28.50
2023-02-17T09:19:07.927Z,28.40
2023-02-17T09:22:02.238Z,28.30
2023-02-17T09:24:56.569Z,28.30
2023-02-17T09:27:51.429Z,28.30
2023-02-17T09:30:46.461Z,28.30
2023-02-17T09:33:42.712Z,28.30
2023-02-17T09:36:42.101Z,28.30
2023-02-17T09:39:36.352Z,28.20
2023-02-17T09:42:31.744Z,28.20
2023-02-17T09:45:31.709Z,28.20
2023-02-17T09:48:31.260Z,28.10
2023-02-17T09:51:36.272Z,28.10
2023-02-17T09:54:38.475Z,28.00
2023-02-17T09:57:43.756Z,28.00
2023-02-17T10:01:00.710Z,28.00
2023-02-17T10:04:08.044Z,28.00
2023-02-17T10:07:11.441Z,27.90
2023-02-17T10:10:16.975Z,27.80
2023-02-17T10:13:11.996Z,27.80
2023-02-17T10:16:11.444Z,27.70
2023-02-17T10:19:34.058Z,27.70
2023-02-17T10:22:29.294Z,27.70
2023-02-17T10:25:38.126Z,27.60
2023-02-17T10:28:35.538Z,27.50
2023-02-17T10:31:47.253Z,27.40
2023-02-17T10:35:19.918Z,27.40
2023-02-17T10:38:19.181Z,27.30
2023-02-17T10:41:18.400Z,27.20
2023-02-17T10:44:23.099Z,27.10
2023-02-17T10:47:17.929Z,27.10
2023-02-17T10:50:26.606Z,27.00
2023-02-17T10:53:22.670Z,27.00
2023-02-17T10:56:19.590Z,27.00
2023-02-17T10:59:46.995Z,27.00
2023-02-17T11:02:47.339Z,27.00
2023-02-17T11:05:43.135Z,26.90
2023-02-17T11:08:47.071Z,26.90
2023-02-17T11:11:59.545Z,26.80
2023-02-17T11:14:56.515Z,26.80
2023-02-17T11:17:52.195Z,26.80
2023-02-17T11:20:46.687Z,26.80
2023-02-17T11:24:05.931Z,26.70
2023-02-17T11:27:09.601Z,26.70
2023-02-17T11:30:20.321Z,26.70
2023-02-17T11:33:23.748Z,26.60
2023-02-17T11:36:33.587Z,26.50
2023-02-17T11:39:28.429Z,26.50
2023-02-17T11:42:32.101Z,26.40
2023-02-17T11:45:29.357Z,26.40
2023-02-17T11:48:41.630Z,26.30
2023-02-17T11:51:41.951Z,26.30
2023-02-17T11:54:59.503Z,26.20
2023-02-17T11:58:16.392Z,26.20
2023-02-17T12:01:42.606Z,26.10
2023-02-17T12:04:44.440Z,26.00
2023-02-17T12:08:21.470Z,26.00
2023-02-17T12:11:26.004Z,25.90
2023-02-17T12:14:48.322Z,25.80
2023-02-17T12:17:57.198Z,25.80
2023-02-17T12:21:17.051Z,25.80
2023-02-17T12:24:38.642Z,25.70
2023-02-17T12:28:09.840Z,25.60
2023-02-17T12:31:18.263Z,25.60
2023-02-17T12:34:54.406Z,25.50
2023-02-17T12:38:13.530Z,25.50
2023-02-17T12:41:11.394Z,25.40
2023-02-17T12:44:30.691Z,25.30
2023-02-17T12:47:40.197Z,25.30
2023-02-17T12:50:49.534Z,25.20
2023-02-17T12:54:10.474Z,25.10
2023-02-17T12:57:07.753Z,25.10
2023-02-17T13:00:02.457Z,25.00
2023-02-17T13:03:01.262Z,25.00
2023-02-17T13:06:04.981Z,24.90
2023-02-17T13:09:17.229Z,24.80
2023-02-17T13:12:26.699Z,24.70
2023-02-17T13:15:44.175Z,24.70
2023-02-17T13:18:41.702Z,24.60
2023-02-17T13:21:36.127Z,24.60
2023-02-17T13:24:55.423Z,24.50
2023-02-17T13:27:49.659Z,24.50
2023-02-17T13:30:46.526Z,24.40
2023-02-17T13:33:52.638Z,24.40
2023-02-17T13:36:47.175Z,24.40
2023-02-17T13:39:41.507Z,24.30
2023-02-17T13:42:38.141Z,24.20
2023-02-17T13:45:41.329Z,24.20
2023-02-17T13:48:37.549Z,24.20
2023-02-17T13:51:33.282Z,24.10
2023-02-17T13:54:27.515Z,24.00
2023-02-17T13:57:26.200Z,24.00
2023-02-17T14:00:25.681Z,23.90
2023-02-17T14:03:25.109Z,23.90
2023-02-17T14:06:39.080Z,23.80
2023-02-17T14:09:35.293Z,23.70
2023-02-17T14:12:30.024Z,23.70
2023-02-17T14:15:27.086Z,23.60
2023-02-17T14:18:33.587Z,23.60
2023-02-17T14:21:28.940Z,23.50
2023-02-17T14:24:41.438Z,23.40
2023-02-17T14:27:47.319Z,23.40
2023-02-17T14:30:44.086Z,23.30
2023-02-17T14:33:38.503Z,23.10
2023-02-17T14:36:36.492Z,23.00
2023-02-17T14:39:30.706Z,23.00
2023-02-17T14:42:24.986Z,22.90
2023-02-17T14:45:20.507Z,22.90
2023-02-17T14:48:14.958Z,22.90
2023-02-17T14:51:16.228Z,22.80
2023-02-17T14:54:19.160Z,22.80
2023-02-17T14:57:16.386Z,22.80
2023-02-17T15:00:14.846Z,22.80
2023-02-17T15:03:08.630Z,22.70
2023-02-17T15:06:03.161Z,22.70
2023-02-17T15:08:57.617Z,22.60
2023-02-17T15:11:52.067Z,22.60
2023-02-17T15:14:48.246Z,22.50
2023-02-17T15:17:42.497Z,22.50
2023-02-17T15:20:36.809Z,22.50
2023-02-17T15:23:33.724Z,22.40
2023-02-17T15:26:29.097Z,22.40
2023-02-17T15:29:28.758Z,22.30
2023-02-17T15:32:25.181Z,22.30
2023-02-17T15:35:22.977Z,22.30
2023-02-17T15:38:17.342Z,22.20
2023-02-17T15:41:31.622Z,22.20
2023-02-17T15:44:29.909Z,22.20
2023-02-17T15:47:24.210Z,22.10
2023-02-17T15:50:23.928Z,22.10
2023-02-17T15:53:18.286Z,22.00
2023-02-17T15:56:20.469Z,22.00
2023-02-17T15:59:23.762Z,22.00
2023-02-17T16:02:23.604Z,21.90
2023-02-17T16:05:20.177Z,21.90
2023-02-17T16:08:14.500Z,21.80
2023-02-17T16:11:10.713Z,21.80
2023-02-17T16:14:05.643Z,21.70
2023-02-17T16:17:00.127Z,21.70
2023-02-17T16:19:54.381Z,21.60
2023-02-17T16:22:49.322Z,21.40
2023-02-17T16:25:46.905Z,21.40
2023-02-17T16:28:41.205Z,21.40
2023-02-17T16:31:37.122Z,21.40
2023-02-17T16:34:35.891Z,21.40
2023-02-17T16:37:30.209Z,21.40
2023-02-17T16:40:27.437Z,21.40
2023-02-17T16:43:28.929Z,21.40
2023-02-17T16:46:34.765Z,21.40
2023-02-17T16:49:38.235Z,21.40
2023-02-17T16:52:32.579Z,21.40
2023-02-17T16:55:30.887Z,21.30
2023-02-17T16:58:28.224Z,21.20
2023-02-17T17:01:24.153Z,21.10
2023-02-17T17:04:19.170Z,21.10
2023-02-17T17:07:17.276Z,21.10
2023-02-17T17:10:23.453Z,21.00
2023-02-17T17:13:17.826Z,20.90
2023-02-17T17:16:15.817Z,20.90
2023-02-17T17:19:12.005Z,20.90
2023-02-17T17:22:06.248Z,20.80
2023-02-17T17:25:00.900Z,20.80
2023-02-17T17:27:55.567Z,20.70
2023-02-17T17:30:49.842Z,20.70
2023-02-17T17:33:44.409Z,20.60
2023-02-17T17:36:42.107Z,20.60
2023-02-17T17:39:37.402Z,20.60
2023-02-17T17:42:31.681Z,20.60
2023-02-17T17:45:27.438Z,20.50
2023-02-17T17:48:21.956Z,20.50
2023-02-17T17:51:18.323Z,20.50
2023-02-17T17:54:12.756Z,20.50
2023-02-17T17:57:07.106Z,20.50
2023-02-17T18:00:01.442Z,20.40
2023-02-17T18:02:55.775Z,20.40
2023-02-17T18:05:50.698Z,20.30
2023-02-17T18:08:47.550Z,20.30
2023-02-17T18:11:43.932Z,20.30
2023-02-17T18:14:40.463Z,20.20
2023-02-17T18:17:37.440Z,20.20
2023-02-17T18:20:34.872Z,20.20
2023-02-17T18:23:29.145Z,20.10
2023-02-17T18:26:24.058Z,20.10
2023-02-17T18:29:18.625Z,20.10
2023-02-17T18:32:13.137Z,20.00
2023-02-17T18:35:07.895Z,20.00
2023-02-17T18:38:02.609Z,19.90
2023-02-17T18:40:56.844Z,19.90
2023-02-17T18:43:51.534Z,19.90
2023-02-17T18:46:45.858Z,19.80
2023-02-17T18:49:40.438Z,19.80
2023-02-17T18:52:35.430Z,19.80
2023-02-17T18:55:29.776Z,19.70
2023-02-17T18:58:24.120Z,19.70
2023-02-17T19:01:27.045Z,19.70
2023-02-17T19:04:21.299Z,19.60
2023-02-17T19:07:15.557Z,19.60
2023-02-17T19:10:10.616Z,19.60
2023-02-17T19:13:05.059Z,19.60
2023-02-17T19:16:14.044Z,19.50
2023-02-17T19:19:08.420Z,19.50
2023-02-17T19:22:03.074Z,19.50
2023-02-17T19:24:57.702Z,19.40
2023-02-17T19:27:52.056Z,19.40
2023-02-17T19:30:46.340Z,19.40
2023-02-17T19:33:41.357Z,19.40
2023-02-17T19:36:35.696Z,19.30
2023-02-17T19:39:29.918Z,19.30
2023-02-17T19:42:24.557Z,19.30
2023-02-17T19:45:18.880Z,19.30
2023-02-17T19:48:13.350Z,19.30
2023-02-17T19:51:09.693Z,19.20
2023-02-17T19:54:04.496Z,19.20
2023-02-17T19:56:58.863Z,19.20
2023-02-17T19:59:53.147Z,19.20
2023-02-17T20:02:47.840Z,19.10
2023-02-17T20:05:43.471Z,19.10
2023-02-17T20:08:37.902Z,19.10
2023-02-17T20:11:33.562Z,19.00
2023-02-17T20:14:28.024Z,19.00
2023-02-17T20:17:22.735Z,19.00
2023-02-17T20:20:17.242Z,19.00
2023-02-17T20:23:11.562Z,18.90
2023-02-17T20:26:17.713Z,18.90
2023-02-17T20:29:13.025Z,18.80
2023-02-17T20:32:08.105Z,18.80
2023-02-17T20:35:02.857Z,18.80
2023-02-17T20:37:57.221Z,18.80
2023-02-17T20:40:51.613Z,18.80
2023-02-17T20:43:46.426Z,18.70
2023-02-17T20:46:43.878Z,18.70
2023-02-17T20:49:38.202Z,18.70
2023-02-17T20:52:32.559Z,18.70
2023-02-17T20:55:27.688Z,18.70
2023-02-17T20:58:22.098Z,18.80
2023-02-17T21:01:16.791Z,18.80
2023-02-17T21:04:12.426Z,18.80
2023-02-17T21:07:06.911Z,18.80
2023-02-17T21:10:01.266Z,18.80
2023-02-17T21:12:55.962Z,18.90
2023-02-17T21:15:50.717Z,18.90
2023-02-17T21:18:47.073Z,18.90
2023-02-17T21:21:42.385Z,19.00
2023-02-17T21:24:36.710Z,19.00
2023-02-17T21:27:31.335Z,19.10
2023-02-17T21:30:26.760Z,19.10
2023-02-17T21:33:21.120Z,19.20
2023-02-17T21:36:17.778Z,19.30
2023-02-17T21:39:12.085Z,19.30
2023-02-17T21:42:06.506Z,19.30
2023-02-17T21:45:01.314Z,19.40
2023-02-17T21:47:55.646Z,19.40
2023-02-17T21:50:49.995Z,19.50
2023-02-17T21:53:44.834Z,19.50
2023-02-17T21:56:39.349Z,19.60
2023-02-17T21:59:33.727Z,19.70
2023-02-17T22:02:28.107Z,19.70
2023-02-17T22:05:22.371Z,19.80
2023-02-17T22:08:16.780Z,19.80
2023-02-17T22:11:23.393Z,20.00
2023-02-17T22:14:20.544Z,20.00
2023-02-17T22:17:14.854Z,20.20
2023-02-17T22:20:09.824Z,20.20
2023-02-17T22:23:04.037Z,20.30
2023-02-17T22:25:58.615Z,20.40
2023-02-17T22:28:53.326Z,20.50
2023-02-17T22:31:48.688Z,20.60
2023-02-17T22:34:43.061Z,20.70
2023-02-17T22:37:38.409Z,20.70
2023-02-17T22:40:32.718Z,20.80
2023-02-17T22:43:27.232Z,20.90
2023-02-17T22:46:26.138Z,21.20
2023-02-17T22:49:21.660Z,21.50
2023-02-17T22:52:16.417Z,22.00
2023-02-17T22:55:10.901Z,22.60
2023-02-17T22:58:05.489Z,23.20
2023-02-17T23:01:12.006Z,23.70
2023-02-17T23:04:08.082Z,24.30
2023-02-17T23:07:02.951Z,24.80
2023-02-17T23:09:57.827Z,25.30
2023-02-17T23:12:53.148Z,25.70
2023-02-17T23:15:47.991Z,25.90
2023-02-17T23:18:43.259Z,26.10
2023-02-17T23:21:39.394Z,26.30
2023-02-17T23:24:33.936Z,26.40
2023-02-17T23:27:28.571Z,26.50
2023-02-17T23:30:24.684Z,26.70
2023-02-17T23:33:23.875Z,26.80
2023-02-17T23:36:18.816Z,26.90
2023-02-17T23:39:14.249Z,27.10
2023-02-17T23:42:08.886Z,27.10
2023-02-17T23:45:04.650Z,27.10
2023-02-17T23:47:59.432Z,27.10
2023-02-17T23:51:05.509Z,27.10
2023-02-17T23:54:00.306Z,27.10
2023-02-17T23:56:55.145Z,27.20
2023-02-17T23:59:49.696Z,27.10
